Time,TemperatureF,DewpointF,PressureIn,WindDirection,WindDirectionDegrees,WindSpeedMPH,WindSpeedGustMPH,Humidity,HourlyPrecipIn,Conditions,Clouds,dailyrainin,SolarRadiationWatts/m^2,SoftwareType,DateUTC
2013-03-28 13:52:00,44.0,13.0,-100.00,East,79,5.0,20.0,28,-99.99,,,0.00,835.000000,,2013-03-28 18:52:00,
2013-03-28 14:02:00,44.0,13.0,-100.00,East,79,5.0,20.0,28,-99.99,,,0.00,835.000000,,2013-03-28 19:02:00,
2013-03-28 14:33:00,45.0,10.0,-100.00,NNE,17,8.0,14.0,24,0.00,,,0.00,861.000000,,2013-03-28 19:33:00,
2013-03-28 14:43:00,45.0,10.0,-100.00,NNE,17,8.0,14.0,24,0.00,,,0.00,861.000000,,2013-03-28 19:43:00,
2013-03-28 14:52:00,45.0,10.0,-100.00,NNE,17,8.0,14.0,24,0.00,,,0.00,861.000000,,2013-03-28 19:52:00,
2013-03-28 15:03:00,45.0,10.0,-100.00,NNE,17,8.0,14.0,24,0.00,,,0.00,861.000000,,2013-03-28 20:03:00,
2013-03-28 15:33:00,48.0,12.0,-100.00,West,277,4.0,10.0,23,0.00,,,0.00,823.000000,,2013-03-28 20:33:00,
2013-03-28 15:42:00,48.0,12.0,-100.00,West,277,4.0,10.0,23,0.00,,,0.00,823.000000,,2013-03-28 20:42:00,
2013-03-28 15:53:00,48.0,12.0,-100.00,West,277,4.0,10.0,23,0.00,,,0.00,823.000000,,2013-03-28 20:53:00,
2013-03-28 16:02:00,48.0,12.0,-100.00,West,277,4.0,10.0,23,0.00,,,0.00,823.000000,,2013-03-28 21:02:00,
2013-03-28 16:33:00,48.0,12.0,-100.00,NNW,338,5.0,11.0,23,0.00,,,0.00,677.000000,,2013-03-28 21:33:00,
2013-03-28 16:43:00,48.0,12.0,-100.00,NNW,338,5.0,11.0,23,0.00,,,0.00,677.000000,,2013-03-28 21:43:00,
2013-03-28 16:53:00,48.0,12.0,-100.00,NNW,338,5.0,11.0,23,0.00,,,0.00,677.000000,,2013-03-28 21:53:00,
2013-03-28 17:02:00,48.0,12.0,-100.00,NNW,338,5.0,11.0,23,0.00,,,0.00,677.000000,,2013-03-28 22:02:00,
2013-03-28 17:32:00,48.0,11.0,-100.00,WNW,292,4.0,8.0,22,0.00,,,0.00,557.000000,,2013-03-28 22:32:00,
2013-03-28 17:42:00,48.0,11.0,-100.00,WNW,292,4.0,8.0,22,0.00,,,0.00,557.000000,,2013-03-28 22:42:00,
2013-03-28 17:52:00,48.0,11.0,-100.00,WNW,292,4.0,8.0,22,0.00,,,0.00,557.000000,,2013-03-28 22:52:00,
2013-03-28 18:02:00,48.0,11.0,-100.00,WNW,292,4.0,8.0,22,0.00,,,0.00,557.000000,,2013-03-28 23:02:00,
2013-03-28 18:32:00,45.0,13.0,-100.00,SSE,148,5.0,10.0,27,0.00,,,0.00,426.000000,,2013-03-28 23:32:00,
2013-03-28 18:42:00,45.0,13.0,-100.00,SSE,148,5.0,10.0,27,0.00,,,0.00,426.000000,,2013-03-28 23:42:00,
2013-03-28 18:53:00,45.0,13.0,-100.00,SSE,148,5.0,10.0,27,0.00,,,0.00,426.000000,,2013-03-28 23:53:00,
2013-03-28 19:02:00,45.0,13.0,-100.00,SSE,148,5.0,10.0,27,0.00,,,0.00,426.000000,,2013-03-29 00:02:00,
2013-03-28 19:33:00,39.0,12.0,-100.00,South,171,3.0,9.0,33,0.00,,,-99.99,161.000000,,2013-03-29 00:33:00,
2013-03-28 19:42:00,39.0,12.0,-100.00,South,171,3.0,9.0,33,0.00,,,-99.99,161.000000,,2013-03-29 00:42:00,
2013-03-28 19:52:00,39.0,12.0,-100.00,South,171,3.0,9.0,33,0.00,,,-99.99,161.000000,,2013-03-29 00:52:00,
2013-03-28 20:02:00,39.0,12.0,-100.00,South,171,3.0,9.0,33,0.00,,,-99.99,161.000000,,2013-03-29 01:02:00,
2013-03-28 20:22:00,30.0,14.0,-100.00,SE,146,1.0,5.0,50,0.00,,,-99.99,8.000000,,2013-03-29 01:22:00,
2013-03-28 20:33:00,30.0,14.0,-100.00,SE,146,1.0,5.0,50,0.00,,,-99.99,8.000000,,2013-03-29 01:33:00,
2013-03-28 20:42:00,30.0,14.0,-100.00,SE,146,1.0,5.0,50,0.00,,,-99.99,8.000000,,2013-03-29 01:42:00,
2013-03-28 20:52:00,30.0,14.0,-100.00,SE,146,1.0,5.0,50,0.00,,,-99.99,8.000000,,2013-03-29 01:52:00,
2013-03-28 21:02:00,30.0,14.0,-100.00,SE,146,1.0,5.0,50,0.00,,,-99.99,8.000000,,2013-03-29 02:02:00,
2013-03-28 21:32:00,27.0,16.0,-100.00,SSE,150,2.0,3.0,64,0.00,,,-99.99,0.000000,,2013-03-29 02:32:00,
2013-03-28 21:42:00,27.0,16.0,-100.00,SSE,150,2.0,3.0,64,0.00,,,-99.99,0.000000,,2013-03-29 02:42:00,
2013-03-28 21:53:00,27.0,16.0,-100.00,SSE,150,2.0,3.0,64,0.00,,,-99.99,0.000000,,2013-03-29 02:53:00,
2013-03-28 22:02:00,27.0,16.0,-100.00,SSE,150,2.0,3.0,64,0.00,,,-99.99,0.000000,,2013-03-29 03:02:00,
2013-03-28 22:32:00,26.0,17.0,-100.00,South,171,2.0,4.0,69,0.00,,,-99.99,0.000000,,2013-03-29 03:32:00,
2013-03-28 22:43:00,26.0,17.0,-100.00,South,171,2.0,4.0,69,0.00,,,-99.99,0.000000,,2013-03-29 03:43:00,
2013-03-28 22:53:00,26.0,17.0,-100.00,South,171,2.0,4.0,69,0.00,,,-99.99,0.000000,,2013-03-29 03:53:00,
2013-03-28 23:03:00,26.0,17.0,-100.00,South,171,2.0,4.0,69,0.00,,,-99.99,0.000000,,2013-03-29 04:03:00,
2013-03-28 23:23:00,25.0,16.0,-100.00,South,171,2.0,4.0,67,0.00,,,-99.99,0.000000,,2013-03-29 04:23:00,
2013-03-28 23:33:00,25.0,16.0,-100.00,South,171,2.0,4.0,67,0.00,,,-99.99,0.000000,,2013-03-29 04:33:00,
2013-03-28 23:43:00,25.0,16.0,-100.00,South,171,2.0,4.0,67,0.00,,,-99.99,0.000000,,2013-03-29 04:43:00,
2013-03-28 23:52:00,25.0,16.0,-100.00,South,171,2.0,4.0,67,0.00,,,-99.99,0.000000,,2013-03-29 04:52:00,